Nome Airport Nome US
ICAO: PAOM
IATA:
Category: Medium
Scheduled Services:

Elevation: 37 ft
TransAlt. 18000 ft.

Airport Communications:
ASOS:119.925
ATIS:119.925
ANCHORAGE CNTR:133.3
CTAF:123.6
RDO:122.45
TWEB:115

PAOM Zoom In..

Runways:

(A) RW 03 length 5576 ft width 150 ft
---- / hdg 28

(B) RW 10 length 6001 ft width 150 ft
---- / hdg 96

(C) RW 21 length 5576 ft width 150 ft
---- / hdg 208

(D) RW 28 length 6001 ft width 150 ft
ILS 108.70 / hdg 276

Location; PAOM
Day. 22 / Time. 01.53 Zulu
* Altimeter: 29.59
* Temperature: 11° c. 51.8°f.
* Wind from: 330° Speed 10 kn.
Dewpoint: -02° c.
Visibility: 10 Statute Miles.
Clouds: Clear (automated report).

PAOM 220153Z AUTO 33010KT 10SM CLR 11/M02 A2959 RMK AO2 SLP019 T01061017 TSNO CHINO NE $


Wind From 330°
Speed 10 kn.

 
 
jpsmedia.com for Web Design SOUNDCLOUD worldairports.se 2018   terms of use